Latest Weather Observations for Sydney Harbour

IDN60901

Issued at 9:21 pm EST Sunday 3 July 2022 (issued every 10 minutes, with the page automatically refreshed every 10 minutes)

About weather observations | Map of Sydney area stations | Latest observations for Sydney area | Other Formats
Station Details ID: 066196 Name: WEDDING CAKE WEST Lat: -33.84 Lon: 151.26 Height: 6.0 m
Data from the previous 72 hours. | See also: Recent months at Sydney Harbour
Date/Time
EST
Temp
°C
App
Temp
°C
Dew
Point
°C
Rel
Hum
%
Delta-T
°C
Wind Press
QNH
hPa
Press
MSL
hPa
Rain since
9am
mm
Dir  Spd
km/h
Gust
km/h
Spd
kts
Gust
kts
03/09:02pm 16.8 - - - - SSE 43 61 23 33 - - -
03/09:00pm 16.8 - - - - SSE 44 61 24 33 - - -
03/08:30pm 16.2 - - - - SSE 46 65 25 35 - - -
03/08:00pm 17.0 - - - - SSE 41 59 22 32 - - -
03/07:30pm 16.5 - - - - SSE 37 57 20 31 - - -
03/07:05pm 16.3 - - - - SSE 41 61 22 33 - - -
03/07:00pm 16.2 - - - - SE 43 57 23 31 - - -
03/06:31pm 16.1 - - - - SSE 39 57 21 31 - - -
03/06:30pm 16.1 - - - - SSE 41 57 22 31 - - -
03/06:07pm 16.0 - - - - SE 50 70 27 38 - - -
03/06:00pm 16.1 - - - - SE 50 61 27 33 - - -
03/05:30pm 16.1 - - - - SSE 43 67 23 36 - - -
03/05:00pm 16.2 - - - - SE 46 69 25 37 - - -
03/04:30pm 16.4 - - - - SSE 39 61 21 33 - - -
03/04:00pm 16.7 - - - - SE 46 65 25 35 - - -
03/03:30pm 16.2 - - - - SSE 41 67 22 36 - - -
03/03:00pm 15.9 - - - - SE 46 65 25 35 - - -
03/02:32pm 16.6 - - - - SSE 43 67 23 36 - - -
03/02:30pm 16.6 - - - - SSE 43 54 23 29 - - -
03/02:00pm 16.3 - - - - SSE 43 61 23 33 - - -
03/01:30pm 16.4 - - - - SSE 43 61 23 33 - - -
03/01:00pm 16.3 - - - - SSE 39 57 21 31 - - -
03/12:30pm 17.0 - - - - SE 44 63 24 34 - - -
03/12:00pm 17.6 - - - - SE 50 70 27 38 - - -
03/11:40am 17.5 - - - - SE 48 67 26 36 - - -
03/11:30am 17.7 - - - - SE 50 65 27 35 - - -
03/11:04am 17.8 - - - - SE 48 67 26 36 - - -
03/11:00am 17.9 - - - - SE 50 67 27 36 - - -
03/10:30am 17.8 - - - - SE 46 69 25 37 - - -
03/10:00am 17.8 - - - - SE 48 69 26 37 - - -
03/09:47am 17.6 - - - - SE 52 72 28 39 - - -
03/09:30am 17.6 - - - - SE 50 65 27 35 - - -
03/09:00am 16.2 - - - - ESE 52 72 28 39 - - -
03/08:41am 17.0 - - - - SE 46 65 25 35 - - -
03/08:30am 16.4 - - - - SE 46 61 25 33 - - -
03/08:00am 17.4 - - - - ESE 46 65 25 35 - - -
03/07:30am 17.7 - - - - ESE 52 74 28 40 - - -
03/07:00am 17.6 - - - - ESE 46 65 25 35 - - -
03/06:30am 17.2 - - - - ESE 48 69 26 37 - - -
03/06:00am 18.3 - - - - ESE 43 61 23 33 - - -
03/05:46am 17.8 - - - - ESE 44 63 24 34 - - -
03/05:30am 18.1 - - - - ESE 44 59 24 32 - - -
03/05:00am 16.8 - - - - ESE 46 70 25 38 - - -
03/04:55am 16.5 - - - - ESE 52 70 28 38 - - -
03/04:30am 17.7 - - - - ESE 41 57 22 31 - - -
03/04:24am 17.6 - - - - ESE 39 57 21 31 - - -
03/04:00am 16.4 - - - - ESE 43 54 23 29 - - -
03/03:54am 16.6 - - - - ESE 35 54 19 29 - - -
03/03:30am 16.4 - - - - ESE 35 50 19 27 - - -
03/03:10am 15.7 - - - - E 41 59 22 32 - - -
03/03:00am 16.0 - - - - E 43 54 23 29 - - -
03/02:30am 16.3 - - - - SE 28 48 15 26 - - -
03/02:20am 16.1 - - - - SE 28 39 15 21 - - -
03/02:00am 16.1 - - - - ESE 39 50 21 27 - - -
03/01:30am 16.2 - - - - ESE 37 48 20 26 - - -
03/01:00am 15.7 - - - - ESE 28 35 15 19 - - -
03/12:31am 15.8 - - - - ESE 39 57 21 31 - - -
03/12:30am 15.9 - - - - E 41 57 22 31 - - -
03/12:00am 16.7 - - - - E 43 54 23 29 - - -
 
Date/Time
EST
Temp
°C
App
Temp
°C
Dew
Point
°C
Rel
Hum
%
Delta-T
°C
Wind Press
QNH
hPa
Press
MSL
hPa
Rain since
9am
mm
Dir  Spd
km/h
Gust
km/h
Spd
kts
Gust
kts
02/11:52pm 16.6 - - - - E 35 54 19 29 - - -
02/11:30pm 16.9 - - - - E 33 43 18 23 - - -
02/11:00pm 16.4 - - - - E 32 41 17 22 - - -
02/10:30pm 15.8 - - - - SE 35 48 19 26 - - -
02/10:00pm 16.6 - - - - E 32 52 17 28 - - -
02/09:30pm 16.8 - - - - E 26 37 14 20 - - -
02/09:00pm 16.7 - - - - ESE 20 26 11 14 - - -
02/08:30pm 16.8 - - - - ESE 20 24 11 13 - - -
02/08:00pm 16.6 - - - - ESE 22 30 12 16 - - -
02/07:30pm 16.5 - - - - ESE 28 33 15 18 - - -
02/07:00pm 16.4 - - - - E 24 33 13 18 - - -
02/06:30pm 16.0 - - - - ESE 20 28 11 15 - - -
02/06:00pm 15.7 - - - - E 28 37 15 20 - - -
02/05:30pm 15.9 - - - - ESE 33 46 18 25 - - -
02/05:00pm 16.0 - - - - SE 37 46 20 25 - - -
02/04:30pm 16.5 - - - - ESE 37 48 20 26 - - -
02/04:00pm 16.4 - - - - ESE 33 46 18 25 - - -
02/03:30pm 16.3 - - - - ESE 32 44 17 24 - - -
02/03:03pm 16.2 - - - - ESE 35 56 19 30 - - -
02/03:00pm 16.3 - - - - ESE 33 48 18 26 - - -
02/02:56pm 16.5 - - - - ESE 30 48 16 26 - - -
02/02:30pm 16.1 - - - - ESE 30 39 16 21 - - -
02/02:00pm 15.9 - - - - SE 30 35 16 19 - - -
02/01:30pm 15.9 - - - - E 28 43 15 23 - - -
02/01:24pm 15.7 - - - - ESE 19 39 10 21 - - -
02/01:00pm 14.6 - - - - WSW 13 15 7 8 - - -
02/12:30pm 14.7 - - - - N 6 11 3 6 - - -
02/12:00pm 14.5 - - - - W 13 15 7 8 - - -
02/11:30am 14.0 - - - - WSW 13 17 7 9 - - -
02/11:00am 14.0 - - - - W 11 17 6 9 - - -
02/10:30am 13.9 - - - - W 17 19 9 10 - - -
02/10:00am 13.4 - - - - WNW 15 22 8 12 - - -
02/09:30am 13.3 - - - - WSW 17 22 9 12 - - -
02/09:00am 13.2 - - - - WSW 13 19 7 10 - - -
02/08:30am 12.3 - - - - WSW 15 20 8 11 - - -
02/08:00am 12.6 - - - - WSW 17 20 9 11 - - -
02/07:30am 12.9 - - - - W 7 9 4 5 - - -
02/07:00am 12.6 - - - - WSW 19 22 10 12 - - -
02/06:30am 12.8 - - - - W 17 20 9 11 - - -
02/06:00am 12.6 - - - - WSW 19 22 10 12 - - -
02/05:30am 12.6 - - - - W 19 22 10 12 - - -
02/05:00am 12.6 - - - - WSW 15 20 8 11 - - -
02/04:30am 12.7 - - - - WSW 13 17 7 9 - - -
02/04:00am 12.8 - - - - WSW 19 22 10 12 - - -
02/03:30am 12.4 - - - - WSW 19 24 10 13 - - -
02/03:00am 12.3 - - - - WSW 19 24 10 13 - - -
02/02:30am 12.3 - - - - WSW 19 20 10 11 - - -
02/02:00am 12.3 - - - - SW 11 15 6 8 - - -
02/01:30am 12.6 - - - - W 17 20 9 11 - - -
02/01:00am 12.5 - - - - W 15 22 8 12 - - -
02/12:30am 12.8 - - - - W 17 19 9 10 - - -
02/12:00am 12.7 - - - - W 19 20 10 11 - - -
 
Date/Time
EST
Temp
°C
App
Temp
°C
Dew
Point
°C
Rel
Hum
%
Delta-T
°C
Wind Press
QNH
hPa
Press
MSL
hPa
Rain since
9am
mm
Dir  Spd
km/h
Gust
km/h
Spd
kts
Gust
kts
01/11:30pm 12.9 - - - - WSW 19 24 10 13 - - -
01/11:00pm 12.3 - - - - WSW 22 26 12 14 - - -
01/10:30pm 12.5 - - - - WSW 15 17 8 9 - - -
01/10:00pm 12.3 - - - - WSW 17 20 9 11 - - -
01/09:30pm 12.3 - - - - SW 19 20 10 11 - - -
01/09:00pm 12.4 - - - - WSW 17 24 9 13 - - -
01/08:30pm 12.5 - - - - WSW 19 24 10 13 - - -
01/08:00pm 12.6 - - - - WSW 20 26 11 14 - - -
01/07:30pm 12.6 - - - - W 22 26 12 14 - - -
01/07:00pm 12.4 - - - - WSW 20 24 11 13 - - -
01/06:30pm 12.4 - - - - WSW 19 22 10 12 - - -
01/06:00pm 12.0 - - - - WSW 20 26 11 14 - - -
01/05:30pm 12.2 - - - - W 22 28 12 15 - - -
01/05:00pm 12.0 - - - - WSW 24 30 13 16 - - -
01/04:30pm 12.1 - - - - W 24 30 13 16 - - -
01/04:00pm 12.6 - - - - W 24 30 13 16 - - -
01/03:30pm 12.4 - - - - W 26 30 14 16 - - -
01/03:00pm 12.2 - - - - W 24 30 13 16 - - -
01/02:30pm 11.9 - - - - W 24 30 13 16 - - -
01/02:00pm 11.7 - - - - WSW 24 32 13 17 - - -
01/01:30pm 11.8 - - - - W 20 28 11 15 - - -
01/01:00pm 12.1 - - - - WSW 20 26 11 14 - - -
01/12:30pm 12.4 - - - - W 20 30 11 16 - - -
01/12:00pm 12.8 - - - - WSW 17 20 9 11 - - -
01/11:30am 12.6 - - - - WSW 19 24 10 13 - - -
01/11:00am 12.6 - - - - WSW 19 20 10 11 - - -
01/10:30am 12.5 - - - - WSW 20 26 11 14 - - -
01/10:00am 12.5 - - - - WSW 20 24 11 13 - - -
01/09:30am 12.8 - - - - SW 20 28 11 15 - - -
01/09:00am 12.9 - - - - SW 19 24 10 13 - - -
01/08:30am 12.8 - - - - WSW 19 24 10 13 - - -
01/08:00am 13.3 - - - - S 26 30 14 16 - - -
01/07:30am 13.1 - - - - SSW 22 28 12 15 - - -
01/07:00am 12.9 - - - - SSW 26 30 14 16 - - -
01/06:30am 12.5 - - - - SW 24 30 13 16 - - -
01/06:00am 12.5 - - - - SW 26 32 14 17 - - -
01/05:30am 12.4 - - - - WSW 20 28 11 15 - - -
01/05:00am 12.0 - - - - WSW 20 26 11 14 - - -
01/04:30am 12.2 - - - - W 22 28 12 15 - - -
01/04:00am 12.0 - - - - WSW 17 20 9 11 - - -
01/03:30am 12.8 - - - - SW 17 26 9 14 - - -
01/03:00am 12.4 - - - - WSW 17 19 9 10 - - -
01/02:30am 12.7 - - - - WSW 11 17 6 9 - - -
01/02:00am 13.4 - - - - SW 13 19 7 10 - - -
01/01:30am 14.2 - - - - WSW 11 15 6 8 - - -
01/01:00am 13.9 - - - - WSW 15 19 8 10 - - -
01/12:30am 14.0 - - - - SW 20 24 11 13 - - -
01/12:00am 14.4 - - - - WSW 19 24 10 13 - - -
 
Date/Time
EST
Temp
°C
App
Temp
°C
Dew
Point
°C
Rel
Hum
%
Delta-T
°C
Wind Press
QNH
hPa
Press
MSL
hPa
Rain since
9am
mm
Dir  Spd
km/h
Gust
km/h
Spd
kts
Gust
kts
30/11:30pm 14.2 - - - - WSW 17 20 9 11 - - -
30/11:00pm 14.5 - - - - WSW 17 22 9 12 - - -
30/10:30pm 14.9 - - - - WSW 17 20 9 11 - - -
30/10:00pm 15.0 - - - - WSW 17 20 9 11 - - -
30/09:30pm 15.4 - - - - WSW 17 22 9 12 - - -

Latest Capital City Observations: Canberra | Sydney | Melbourne | Brisbane | Adelaide | Perth | Hobart | Darwin

Other formats

Comma delimited format used in spreadsheet applications
http://www.bom.gov.au/fwo/IDN60901/IDN60901.95766.axf

JavaScript Object Notation format (JSON) in row-major order
http://www.bom.gov.au/fwo/IDN60901/IDN60901.95766.json

Data quality

Most of these data are generated automatically and are frequently updated. Quality checks on data are not normally performed. It is possible for incorrect values to appear. Refer to information at About Latest Weather Observations and please check the disclaimer before using these data.